This is the latest recevied weather packets stored in our database for station/object GOLDWX. If no packets are shown the sender has not sent any weather packets the latest 1 day(s).
| Time | Temp. | Humidity | Pressure | Rain* | Wind** | Luminosity | Snow |
|---|---|---|---|---|---|---|---|
| 1778076716 | 12.22° C | 57% | 1017.4 hPa | 0 mm | - | - | - |
| 1778074003 | 8.89° C | 63% | 1017.1 hPa | 0 mm | - | - | - |
| 1778072198 | 9.44° C | 59% | 1016.6 hPa | 0 mm | - | - | - |
| 1778068587 | 8.89° C | 62% | 1015.9 hPa | 0 mm | - | - | - |
| 1778067985 | 8.89° C | 62% | 1015.8 hPa | 0 mm | - | - | - |
| 1778066782 | 8.89° C | 61% | 1015.7 hPa | 0 mm | - | - | - |
| 1778066180 | 9.44° C | 60% | 1015.7 hPa | 0 mm | - | - | - |
| 1778064977 | 9.44° C | 60% | 1015.6 hPa | 0 mm | - | - | - |
| 1778064375 | 8.89° C | 62% | 1015.5 hPa | 0 mm | - | - | - |
| 1778062570 | 10° C | 60% | 1015.2 hPa | 0 mm | - | - | - |
| 1778061367 | 10° C | 59% | 1015.1 hPa | 0 mm | - | - | - |
| 1778060765 | 10° C | 59% | 1015 hPa | 0 mm | - | - | - |
| 1778059562 | 10.56° C | 57% | 1015.1 hPa | 0 mm | - | - | - |
| 1778058960 | 11.11° C | 54% | 1015 hPa | 0 mm | - | - | - |
| 1778057757 | 11.67° C | 54% | 1014.9 hPa | 0 mm | - | - | - |
| 1778057155 | 11.67° C | 53% | 1014.9 hPa | 0 mm | - | - | - |
| 1778056252 | 12.78° C | 45% | 1014.9 hPa | 0 mm | - | - | - |
| 1778055952 | 13.33° C | 44% | 1014.8 hPa | 0 mm | - | - | - |
| 1778055350 | 13.33° C | 43% | 1014.8 hPa | 0 mm | - | - | - |
| 1778055049 | 13.89° C | 43% | 1014.8 hPa | 0 mm | - | - | - |
| 1778054147 | 13.89° C | 43% | 1014.8 hPa | 0 mm | - | - | - |
| 1778053545 | 13.89° C | 43% | 1014.7 hPa | 0 mm | - | - | - |
| 1778053244 | 13.89° C | 43% | 1014.9 hPa | 0 mm | - | - | - |
| 1778052342 | 13.33° C | 43% | 1014.9 hPa | 0 mm | - | - | - |
| 1778051740 | 13.33° C | 42% | 1014.9 hPa | 0 mm | - | - | - |
* Rain since midnight (hover to see other rain measurements)
** Current wind speed in m/s (hover to see current wind gust speed)